Terminal Aerodrome Forecast
Issued by NWS

Current Version | Previous Version | Graphics & Text | Print | Product List | Glossary On
Versions: 1 2 3 4 5 6 7 8 9 10 11 12 13 14 15 16 17 18 19
261
FTUS41 KILN 271416 AAA
TAFLUK
TAF AMD
KLUK 271416Z 2714/2812 00000KT 3/4SM BR BKN002
     FM271430 00000KT 2SM BR BKN007
     FM271500 19005KT P6SM SCT040 BKN250
     FM272200 17005KT P6SM -SHRA VCTS BKN045CB OVC100
     FM280200 VRB02KT 5SM BR VCSH BKN025 OVC040
     FM280600 00000KT 3SM -SHRA BKN015 OVC025
     FM281000 00000KT 1/4SM FG OVC002=

USA.gov is the U.S. government's official web portal to all federal, state and local government web resources and services.